Time;durP1;ratioP1;P1;durP2;ratioP2;P2;SDS_P1;SDS_P2;PMS_P1;PMS_P2;Temp;Humidity;BMP_temperature;BMP_pressure;BME280_temperature;BME280_humidity;BME280_pressure;Samples;Min_cycle;Max_cycle;Signal;HPM_P1;HPM_P2
2021/09/29 00:02:16;;;;;;;32.78;13.45;;;;;;;12.41;83.34;101534.16;5022665;28;20491;-64
2021/09/29 00:04:42;;;;;;;33.45;13.68;;;;;;;12.44;83.43;101532.44;5018516;28;20376;-64
2021/09/29 00:07:08;;;;;;;31.67;14.07;;;;;;;12.42;83.00;101528.00;5024675;28;20030;-65
2021/09/29 00:09:33;;;;;;;31.50;13.70;;;;;;;12.34;83.98;101527.94;5019893;28;20022;-63
2021/09/29 00:11:59;;;;;;;30.77;13.25;;;;;;;12.26;84.29;101522.59;5019756;28;20507;-66
2021/09/29 00:14:24;;;;;;;34.17;13.90;;;;;;;12.23;84.12;101522.53;5021475;28;20480;-64
2021/09/29 00:16:49;;;;;;;33.22;13.82;;;;;;;12.21;84.60;101514.56;5021293;28;20120;-66
2021/09/29 00:19:15;;;;;;;33.63;13.90;;;;;;;12.17;84.69;101512.81;5021293;28;20035;-65
2021/09/29 00:21:40;;;;;;;32.80;14.05;;;;;;;12.15;84.53;101517.19;5017414;28;20030;-65
2021/09/29 00:24:05;;;;;;;32.20;14.05;;;;;;;12.07;85.30;101510.91;5019625;28;20041;-65
2021/09/29 00:26:31;;;;;;;35.13;14.60;;;;;;;12.01;85.28;101510.88;5017868;28;20038;-63
2021/09/29 00:28:56;;;;;;;31.48;13.52;;;;;;;12.01;85.94;101500.28;5018783;28;20088;-65
2021/09/29 00:34:00;;;;;;;33.95;14.15;;;;;;;11.90;86.79;101493.94;5018650;28;20045;-63
2021/09/29 00:36:26;;;;;;;;;;;;;;;11.94;83.58;101494.06;5019569;28;20026;-65
2021/09/29 00:38:52;;;;;;;33.63;13.98;;;;;;;11.81;87.23;101485.06;5019009;28;19913;-64
2021/09/29 00:41:17;;;;;;;31.45;13.30;;;;;;;11.84;87.31;101482.44;5017662;28;20083;-65
2021/09/29 00:43:42;;;;;;;39.15;13.82;;;;;;;11.89;87.52;101478.94;5021329;28;20045;-64
2021/09/29 00:46:08;;;;;;;33.88;13.65;;;;;;;11.79;87.72;101475.31;5018041;28;20026;-64
2021/09/29 00:48:33;;;;;;;32.25;14.00;;;;;;;11.75;88.30;101471.78;5020834;28;20536;-66
2021/09/29 00:50:59;;;;;;;34.63;14.30;;;;;;;11.74;88.58;101466.47;5015992;28;20022;-64
2021/09/29 00:53:25;;;;;;;32.22;13.57;;;;;;;11.69;88.73;101454.06;5019212;28;20044;-65
2021/09/29 00:55:50;;;;;;;32.55;13.82;;;;;;;11.70;88.85;101454.94;5017262;28;20037;-64
2021/09/29 00:58:15;;;;;;;31.27;13.23;;;;;;;11.71;89.28;101454.06;5016352;28;20411;-66
2021/09/29 01:00:41;;;;;;;35.25;13.63;;;;;;;11.62;89.38;101438.06;5019721;28;20029;-64
2021/09/29 01:03:06;;;;;;;31.98;14.15;;;;;;;11.63;89.73;101438.09;5016572;28;20075;-65
2021/09/29 01:05:34;;;;;;;33.22;13.35;;;;;;;11.62;89.99;101448.66;5019015;28;20112;-64
2021/09/29 01:08:24;;;;;;;32.83;13.27;;;;;;;11.64;90.23;101441.63;5016036;28;20112;-64
2021/09/29 01:11:12;;;;;;;33.35;13.40;;;;;;;11.59;89.42;101433.66;5018619;28;20121;-64
2021/09/29 01:13:56;;;;;;;33.38;13.30;;;;;;;11.54;89.81;101437.13;5016365;28;20111;-66
2021/09/29 01:16:22;;;;;;;31.70;13.55;;;;;;;11.55;90.64;101433.59;5016857;28;20102;-64
2021/09/29 01:18:56;;;;;;;30.55;13.48;;;;;;;11.51;90.95;101424.75;5016509;28;20053;-65
2021/09/29 01:21:24;;;;;;;33.88;13.63;;;;;;;11.48;91.45;101424.72;5018594;28;20044;-64
2021/09/29 01:23:49;;;;;;;32.65;13.65;;;;;;;11.45;91.90;101419.41;5018533;28;20061;-64
2021/09/29 01:26:21;;;;;;;33.17;13.63;;;;;;;11.36;92.29;101404.31;5021209;28;20423;-64
2021/09/29 01:28:49;;;;;;;32.35;13.45;;;;;;;11.34;92.68;101403.38;5018114;28;20032;-66
2021/09/29 01:31:15;;;;;;;30.67;13.38;;;;;;;11.30;93.43;101398.94;5021524;28;20025;-65
2021/09/29 01:33:42;;;;;;;34.20;13.60;;;;;;;11.29;93.37;101405.13;5018203;28;20080;-64
2021/09/29 01:36:07;;;;;;;30.80;13.18;;;;;;;11.27;94.28;101398.91;5021114;28;20033;-66
2021/09/29 01:38:34;;;;;;;33.80;13.35;;;;;;;11.29;93.73;101397.19;5020221;28;20428;-65
2021/09/29 01:41:00;;;;;;;33.15;13.65;;;;;;;11.31;94.19;101390.13;5020282;28;20133;-66
2021/09/29 01:43:28;;;;;;;33.78;13.55;;;;;;;11.29;94.18;101395.41;5021765;28;20512;-66
2021/09/29 01:45:54;;;;;;;33.78;13.52;;;;;;;11.26;94.12;101383.91;5020730;28;20037;-65
2021/09/29 01:48:19;;;;;;;32.35;13.70;;;;;;;11.26;94.36;101383.91;5018811;28;20021;-66
2021/09/29 01:50:46;;;;;;;30.23;13.13;;;;;;;11.28;94.62;101384.81;5026511;28;20064;-63
2021/09/29 01:53:13;;;;;;;32.67;13.43;;;;;;;11.28;94.63;101380.38;5026540;28;20079;-65
2021/09/29 01:55:39;;;;;;;30.13;12.95;;;;;;;11.27;94.61;101378.63;5026790;28;20041;-67
2021/09/29 01:58:05;;;;;;;30.42;13.02;;;;;;;11.24;94.96;101368.03;5022320;28;20029;-64
2021/09/29 02:00:31;;;;;;;30.80;12.60;;;;;;;11.25;94.87;101366.25;5023401;28;20045;-64
2021/09/29 02:02:56;;;;;;;33.67;13.30;;;;;;;11.20;95.41;101363.56;5022717;28;20025;-64
2021/09/29 02:05:33;;;;;;;33.13;13.50;;;;;;;11.24;94.63;101360.09;5023249;28;20033;-65
2021/09/29 02:08:02;;;;;;;30.92;12.75;;;;;;;11.26;94.85;101360.09;5020470;28;20018;-64
2021/09/29 02:10:27;;;;;;;32.08;12.82;;;;;;;11.25;95.35;101347.72;5020684;28;20034;-66
2021/09/29 02:12:53;;;;;;;29.30;12.77;;;;;;;11.26;94.89;101349.50;5024041;28;20360;-64
2021/09/29 02:15:19;;;;;;;31.25;12.65;;;;;;;11.27;95.14;101352.16;5018760;28;20030;-66
2021/09/29 02:17:45;;;;;;;35.40;13.30;;;;;;;11.29;95.13;101339.81;5023977;28;20409;-65
2021/09/29 02:20:11;;;;;;;31.02;12.85;;;;;;;11.30;94.94;101341.59;5027994;28;20033;-65
2021/09/29 02:22:41;;;;;;;32.22;12.90;;;;;;;11.25;95.08;101343.31;5020063;28;20448;-65
2021/09/29 02:25:07;;;;;;;30.30;12.10;;;;;;;11.28;95.24;101331.88;5025599;28;20052;-63
2021/09/29 02:27:33;;;;;;;31.52;13.02;;;;;;;11.27;94.73;101333.66;5023563;28;20116;-65
2021/09/29 02:29:58;;;;;;;33.08;12.60;;;;;;;11.30;94.89;101319.53;5022728;28;20587;-65
2021/09/29 02:32:24;;;;;;;31.30;13.25;;;;;;;11.26;94.77;101323.03;5022250;28;20044;-65
2021/09/29 02:34:49;;;;;;;30.75;12.35;;;;;;;11.25;95.57;101318.63;5024204;28;20029;-64
2021/09/29 02:37:14;;;;;;;30.52;12.68;;;;;;;11.26;95.63;101313.34;5019990;28;20021;-65
2021/09/29 02:39:39;;;;;;;33.63;12.75;;;;;;;11.28;95.47;101318.63;5020324;28;20022;-65
2021/09/29 02:42:05;;;;;;;31.50;12.63;;;;;;;11.28;95.31;101310.69;5021549;28;20080;-65
2021/09/29 02:44:32;;;;;;;33.20;12.80;;;;;;;11.31;95.29;101316.00;5020827;28;20048;-64
2021/09/29 02:46:57;;;;;;;33.22;12.57;;;;;;;11.34;94.75;101306.34;5017249;28;20392;-63
2021/09/29 02:49:22;;;;;;;30.23;12.30;;;;;;;11.38;94.63;101304.59;5021719;28;20026;-64
2021/09/29 02:51:48;;;;;;;29.70;12.18;;;;;;;11.42;94.32;101309.06;5022472;28;20022;-63
2021/09/29 02:54:13;;;;;;;31.17;12.38;;;;;;;11.52;93.94;101305.59;5019704;28;20065;-63
2021/09/29 02:56:39;;;;;;;30.38;11.88;;;;;;;11.56;93.38;101301.22;5021921;28;20117;-64
2021/09/29 02:59:08;;;;;;;31.98;11.88;;;;;;;11.61;92.96;101303.91;5018285;28;20140;-63
2021/09/29 03:01:33;;;;;;;31.30;12.05;;;;;;;11.59;93.60;101303.00;5018012;28;20046;-65
2021/09/29 03:03:59;;;;;;;33.38;12.30;;;;;;;11.62;92.91;101285.41;5020050;28;20072;-64
2021/09/29 03:06:24;;;;;;;31.65;12.00;;;;;;;11.66;93.02;101286.28;5020533;28;20068;-64
2021/09/29 03:08:49;;;;;;;30.67;11.65;;;;;;;11.67;93.10;101280.13;5020869;28;20053;-64
2021/09/29 03:11:14;;;;;;;32.03;11.82;;;;;;;11.68;92.90;101279.25;5018194;28;20087;-63
2021/09/29 03:13:40;;;;;;;29.23;11.38;;;;;;;11.67;93.13;101266.88;5020672;28;20026;-64
2021/09/29 03:16:06;;;;;;;29.85;11.40;;;;;;;11.68;91.85;101274.84;5021150;28;20018;-63
2021/09/29 03:18:31;;;;;;;29.67;11.07;;;;;;;11.73;91.75;101264.25;5022703;28;20021;-63
2021/09/29 03:20:57;;;;;;;32.63;11.48;;;;;;;11.77;91.81;101267.84;5018521;28;20101;-64
2021/09/29 03:23:22;;;;;;;28.52;11.50;;;;;;;11.75;91.62;101262.53;5021881;28;20025;-64
2021/09/29 03:25:47;;;;;;;30.15;11.27;;;;;;;11.73;91.16;101258.97;5022687;28;20033;-64
2021/09/29 03:28:13;;;;;;;30.23;11.43;;;;;;;11.73;92.06;101260.75;5022553;28;20121;-63
2021/09/29 03:30:38;;;;;;;31.77;11.00;;;;;;;11.66;92.68;101259.81;5024736;28;20046;-64
2021/09/29 03:33:07;;;;;;;30.48;11.35;;;;;;;11.59;93.15;101260.63;5022766;28;20455;-63
2021/09/29 03:35:36;;;;;;;32.22;11.40;;;;;;;11.55;93.15;101250.91;5022469;28;20076;-63
2021/09/29 03:38:02;;;;;;;28.40;10.85;;;;;;;11.51;94.06;101261.47;5020782;28;20022;-64
2021/09/29 03:40:28;;;;;;;35.08;11.25;;;;;;;11.48;93.76;101261.44;5023899;28;20018;-64
2021/09/29 03:42:53;;;;;;;30.60;11.35;;;;;;;11.48;94.10;101256.16;5022517;28;20354;-64
2021/09/29 03:45:18;;;;;;;29.45;11.30;;;;;;;11.44;95.13;101249.06;5022062;28;20044;-64
2021/09/29 03:47:44;;;;;;;29.45;10.93;;;;;;;11.44;94.44;101249.06;5022548;28;20042;-65
2021/09/29 03:50:12;;;;;;;30.55;11.27;;;;;;;11.47;94.83;101249.06;5022276;28;20026;-65
2021/09/29 03:52:38;;;;;;;29.30;10.93;;;;;;;11.47;94.98;101243.78;5022415;28;20064;-64
2021/09/29 03:55:04;;;;;;;30.83;11.38;;;;;;;11.50;93.79;101250.88;5021032;28;20434;-64
2021/09/29 03:57:30;;;;;;;29.02;10.98;;;;;;;11.53;94.23;101245.59;5021128;28;20105;-64
2021/09/29 03:59:55;;;;;;;28.60;11.02;;;;;;;11.53;94.38;101242.94;5024592;28;20079;-64
2021/09/29 04:02:20;;;;;;;29.77;10.43;;;;;;;11.58;94.01;101243.00;5021550;28;20026;-64
2021/09/29 04:04:46;;;;;;;27.67;10.50;;;;;;;11.59;94.12;101244.75;5023156;28;20025;-65
2021/09/29 04:07:11;;;;;;;29.27;10.50;;;;;;;11.60;95.08;101244.75;5024873;28;20595;-65
2021/09/29 04:09:37;;;;;;;30.67;11.02;;;;;;;11.61;96.29;101245.66;5019335;28;20041;-63
2021/09/29 04:12:02;;;;;;;26.90;10.70;;;;;;;11.52;99.50;101246.50;5020622;28;20030;-64
2021/09/29 04:14:28;;;;;;;27.85;10.23;;;;;;;11.46;99.02;101244.69;5024212;28;20021;-64
2021/09/29 04:16:53;;;;;;;29.38;10.48;;;;;;;11.40;100.00;101241.09;5018027;28;20152;-64
2021/09/29 04:19:18;;;;;;;31.77;11.55;;;;;;;11.30;100.00;101251.63;5022354;28;20389;-64
2021/09/29 04:21:44;;;;;;;29.33;10.77;;;;;;;11.27;100.00;101242.75;5022575;28;20029;-64
2021/09/29 04:24:10;;;;;;;29.08;11.05;;;;;;;11.14;100.00;101240.03;5021192;28;20100;-64
2021/09/29 04:26:38;;;;;;;31.48;11.70;;;;;;;11.12;100.00;101246.16;5019303;28;20030;-64
2021/09/29 04:29:04;;;;;;;29.50;10.52;;;;;;;11.06;100.00;101241.72;5019714;28;20037;-65
2021/09/29 04:31:30;;;;;;;31.23;11.55;;;;;;;11.05;100.00;101239.94;5021234;28;20025;-65
2021/09/29 04:33:55;;;;;;;31.80;11.15;;;;;;;11.01;100.00;101238.16;5020732;28;20026;-64
2021/09/29 04:36:20;;;;;;;28.02;10.60;;;;;;;10.99;100.00;101239.88;5019886;28;20053;-64
2021/09/29 04:38:46;;;;;;;31.52;11.68;;;;;;;10.96;100.00;101229.28;5023811;28;20126;-64
2021/09/29 04:41:11;;;;;;;31.88;11.60;;;;;;;10.94;100.00;101237.19;5020803;28;20017;-64
2021/09/29 04:43:36;;;;;;;29.55;11.07;;;;;;;10.87;100.00;101237.13;5022220;28;20128;-64
2021/09/29 04:46:02;;;;;;;30.48;11.10;;;;;;;10.91;100.00;101236.31;5020844;28;20072;-64
2021/09/29 04:48:27;;;;;;;31.83;10.95;;;;;;;10.91;100.00;101231.88;5018033;28;20028;-65
2021/09/29 04:50:53;;;;;;;32.60;10.60;;;;;;;10.93;100.00;101227.47;5024965;28;20358;-64
2021/09/29 04:53:18;;;;;;;30.40;11.35;;;;;;;10.90;100.00;101230.09;5022062;28;20025;-64
2021/09/29 04:55:43;;;;;;;32.80;10.23;;;;;;;10.90;100.00;101226.59;5022461;28;20065;-64
2021/09/29 04:58:10;;;;;;;30.52;11.10;;;;;;;10.92;100.00;101220.44;5022848;28;20477;-64
2021/09/29 05:00:35;;;;;;;29.67;10.30;;;;;;;10.93;100.00;101216.91;5020360;28;20032;-64
2021/09/29 05:03:02;;;;;;;30.17;10.40;;;;;;;10.88;100.00;101226.56;5021285;28;20029;-65
2021/09/29 05:05:27;;;;;;;30.40;10.82;;;;;;;10.89;100.00;101224.81;5025003;28;20033;-65
2021/09/29 05:07:57;;;;;;;30.00;10.80;;;;;;;10.89;100.00;101216.88;5017517;28;20021;-64
2021/09/29 05:10:48;;;;;;;30.00;10.32;;;;;;;10.90;100.00;101216.88;5019693;28;20021;-64
2021/09/29 05:13:17;;;;;;;30.90;10.95;;;;;;;10.91;100.00;101215.13;5018421;28;20088;-64
2021/09/29 05:15:43;;;;;;;32.67;10.40;;;;;;;10.92;100.00;101216.88;5019914;28;20034;-64
2021/09/29 05:18:08;;;;;;;32.78;11.10;;;;;;;10.92;100.00;101217.78;5020677;28;20030;-65
2021/09/29 05:20:33;;;;;;;31.98;10.57;;;;;;;10.88;100.00;101209.78;5016376;28;20069;-64
2021/09/29 05:22:59;;;;;;;30.75;11.20;;;;;;;10.86;100.00;101211.56;5020069;28;20026;-64
2021/09/29 05:25:24;;;;;;;31.63;11.10;;;;;;;10.85;100.00;101209.78;5023718;28;20025;-64
2021/09/29 05:27:51;;;;;;;35.05;11.95;;;;;;;10.91;100.00;101217.78;5021434;28;20022;-64
2021/09/29 05:30:17;;;;;;;38.65;11.98;;;;;;;10.87;100.00;101215.97;5020799;28;20025;-64
2021/09/29 05:32:42;;;;;;;35.40;12.23;;;;;;;10.82;100.00;101205.38;5023793;28;20033;-64
2021/09/29 05:35:08;;;;;;;36.10;11.93;;;;;;;10.79;100.00;101200.94;5021031;28;20033;-63
2021/09/29 05:37:33;;;;;;;32.17;11.48;;;;;;;10.72;100.00;101204.38;5021169;28;20053;-64
2021/09/29 05:39:58;;;;;;;32.45;11.18;;;;;;;10.80;100.00;101202.72;5021157;28;20125;-64
2021/09/29 05:42:24;;;;;;;31.73;11.85;;;;;;;10.72;100.00;101198.22;5021842;28;20025;-65
2021/09/29 05:44:49;;;;;;;33.13;12.18;;;;;;;10.69;100.00;101207.00;5021275;28;20042;-63
2021/09/29 05:47:14;;;;;;;34.47;11.65;;;;;;;10.69;100.00;101207.00;5024704;28;20038;-64
2021/09/29 05:49:40;;;;;;;34.00;12.32;;;;;;;10.75;100.00;101206.19;5022638;28;20053;-63
2021/09/29 05:52:07;;;;;;;35.00;12.68;;;;;;;10.76;100.00;101206.19;5021336;28;20041;-64
2021/09/29 05:54:32;;;;;;;33.80;12.32;;;;;;;10.77;100.00;101204.41;5020331;28;20018;-65
2021/09/29 05:56:58;;;;;;;35.92;12.40;;;;;;;10.79;100.00;101214.16;5020891;28;20028;-63
2021/09/29 05:59:23;;;;;;;34.42;12.27;;;;;;;10.78;100.00;101207.06;5021937;28;20654;-64
2021/09/29 06:01:51;;;;;;;30.15;11.80;;;;;;;10.81;100.00;101208.88;5022449;28;20032;-65
2021/09/29 06:04:16;;;;;;;33.88;11.65;;;;;;;10.81;100.00;101208.88;5018860;28;20033;-64
2021/09/29 06:06:42;;;;;;;33.47;11.93;;;;;;;10.86;100.00;101207.13;5022427;28;20026;-63
2021/09/29 06:09:07;;;;;;;32.10;11.68;;;;;;;10.88;100.00;101202.75;5018869;28;20029;-63
2021/09/29 06:11:33;;;;;;;32.97;11.48;;;;;;;10.88;100.00;101201.84;5018711;28;20468;-66
2021/09/29 06:14:02;;;;;;;32.95;12.75;;;;;;;10.91;100.00;101207.22;5019333;28;20018;-64
2021/09/29 06:16:28;;;;;;;34.15;12.85;;;;;;;10.91;100.00;101197.50;5021733;28;20021;-65
2021/09/29 06:18:53;;;;;;;36.00;13.75;;;;;;;10.96;100.00;101200.19;5016742;28;20469;-65
2021/09/29 06:21:18;;;;;;;35.58;12.93;;;;;;;10.98;100.00;101204.63;5019873;28;20038;-65
2021/09/29 06:23:44;;;;;;;35.05;12.75;;;;;;;11.02;100.00;101208.16;5021806;28;20099;-63
2021/09/29 06:26:10;;;;;;;33.03;12.18;;;;;;;11.00;100.00;101199.34;5019864;28;20042;-66
2021/09/29 06:28:38;;;;;;;36.28;12.70;;;;;;;11.01;100.00;101198.47;5019797;28;20028;-66
2021/09/29 06:31:05;;;;;;;35.33;12.02;;;;;;;11.04;100.00;101200.22;5022309;28;20025;-65
2021/09/29 06:33:30;;;;;;;33.72;12.48;;;;;;;11.00;100.00;101204.63;5020415;28;20029;-65
2021/09/29 06:35:56;;;;;;;36.00;12.40;;;;;;;10.99;100.00;101202.84;5020200;28;20045;-66
2021/09/29 06:38:21;;;;;;;36.10;12.35;;;;;;;11.03;100.00;101194.06;5020076;28;20485;-63
2021/09/29 06:40:46;;;;;;;34.25;12.32;;;;;;;11.02;100.00;101200.22;5022774;28;20053;-66
2021/09/29 06:43:12;;;;;;;33.95;12.45;;;;;;;11.03;100.00;101199.34;5020584;28;20053;-69
2021/09/29 06:45:38;;;;;;;35.08;13.63;;;;;;;11.01;100.00;101200.22;5022067;28;20116;-64
2021/09/29 06:48:04;;;;;;;35.38;13.85;;;;;;;10.97;100.00;101200.19;5020661;28;20057;-66
2021/09/29 06:50:30;;;;;;;41.25;14.63;;;;;;;10.98;100.00;101195.81;5019943;28;20465;-64
2021/09/29 06:52:55;;;;;;;36.78;14.52;;;;;;;11.01;100.00;101200.22;5021969;28;20049;-62
2021/09/29 06:55:21;;;;;;;37.30;15.07;;;;;;;10.98;100.00;101198.44;5024159;28;20072;-64
2021/09/29 06:57:46;;;;;;;40.55;15.88;;;;;;;10.99;100.00;101205.50;5021150;28;20384;-61
2021/09/29 07:00:14;;;;;;;36.45;16.40;;;;;;;10.98;100.00;101195.81;5019701;28;20030;-63
2021/09/29 07:02:43;;;;;;;36.92;16.45;;;;;;;11.00;100.00;101196.69;5028289;28;20037;-61
2021/09/29 07:05:09;;;;;;;39.63;15.75;;;;;;;10.98;100.00;101206.38;5022769;28;20032;-62
2021/09/29 07:07:34;;;;;;;38.60;16.45;;;;;;;11.01;100.00;101200.22;5024065;28;20523;-62
2021/09/29 07:10:00;;;;;;;36.08;16.77;;;;;;;10.99;100.00;101190.53;5026239;28;20037;-62
2021/09/29 07:12:25;;;;;;;39.28;17.65;;;;;;;11.00;100.00;101201.97;5022412;28;20026;-63
2021/09/29 07:14:51;;;;;;;39.00;17.75;;;;;;;11.02;100.00;101200.22;5024244;28;20033;-63
2021/09/29 07:17:16;;;;;;;38.42;16.50;;;;;;;10.94;100.00;101199.28;5022104;28;20033;-64
2021/09/29 07:19:41;;;;;;;35.03;16.02;;;;;;;11.00;100.00;101196.69;5021574;28;20034;-62
2021/09/29 07:22:07;;;;;;;31.92;15.00;;;;;;;11.04;100.00;101206.44;5025617;28;20013;-63
2021/09/29 07:24:32;;;;;;;35.40;15.80;;;;;;;11.00;100.00;101209.91;5025639;28;20464;-62
2021/09/29 07:26:57;;;;;;;33.63;14.85;;;;;;;11.06;100.00;101202.03;5024310;28;20116;-64
2021/09/29 07:29:23;;;;;;;35.67;15.40;;;;;;;11.05;100.00;101202.88;5023727;28;20380;-63
2021/09/29 07:31:48;;;;;;;33.53;14.35;;;;;;;11.06;100.00;101204.66;5024441;28;20473;-65
2021/09/29 07:34:13;;;;;;;33.78;15.10;;;;;;;11.08;100.00;101208.22;5026230;28;20029;-64
2021/09/29 07:36:39;;;;;;;36.47;15.32;;;;;;;11.09;100.00;101198.53;5019934;28;20627;-62
2021/09/29 07:39:06;;;;;;;30.00;13.27;;;;;;;11.08;100.00;101202.03;5021893;28;20026;-61
2021/09/29 07:41:31;;;;;;;32.92;13.70;;;;;;;11.06;100.00;101203.78;5020719;28;20105;-62
2021/09/29 07:43:56;;;;;;;34.63;13.98;;;;;;;11.08;100.00;101213.53;5020833;28;20128;-62
2021/09/29 07:46:22;;;;;;;30.52;12.27;;;;;;;11.08;100.00;101225.84;5023403;28;20152;-62
2021/09/29 07:48:48;;;;;;;27.65;11.10;;;;;;;11.10;100.00;101224.13;5017641;28;20091;-62
2021/09/29 07:51:14;;;;;;;30.42;12.35;;;;;;;11.11;100.00;101233.81;5023757;28;20034;-62
2021/09/29 07:53:41;;;;;;;28.75;11.73;;;;;;;11.11;100.00;101242.66;5018508;28;20041;-62
2021/09/29 07:56:07;;;;;;;33.67;12.70;;;;;;;11.19;100.00;101255.06;5019636;28;20451;-62
2021/09/29 07:58:33;;;;;;;30.67;12.60;;;;;;;11.21;100.00;101250.66;5018253;28;20048;-65
2021/09/29 08:01:00;;;;;;;28.55;11.57;;;;;;;11.20;100.00;101233.91;5019877;28;20018;-64
2021/09/29 08:03:25;;;;;;;28.88;12.70;;;;;;;11.26;100.00;101243.66;5018888;28;20376;-63
2021/09/29 08:05:53;;;;;;;29.88;11.55;;;;;;;11.26;100.00;101257.75;5019008;28;20138;-62
2021/09/29 08:08:18;;;;;;;29.13;12.15;;;;;;;11.26;100.00;101260.41;5021314;28;20064;-62
2021/09/29 08:10:43;;;;;;;28.60;11.65;;;;;;;11.27;100.00;101261.28;5018069;28;20473;-62
2021/09/29 08:13:09;;;;;;;28.20;11.60;;;;;;;11.27;100.00;101270.13;5019214;28;20076;-62
2021/09/29 08:15:34;;;;;;;29.02;12.20;;;;;;;11.31;100.00;101269.28;5021814;28;20073;-62
2021/09/29 08:18:00;;;;;;;32.50;12.13;;;;;;;11.32;100.00;101265.75;5015715;28;20465;-62
2021/09/29 08:20:28;;;;;;;28.08;11.32;;;;;;;11.26;100.00;101273.63;5016404;28;20096;-62
2021/09/29 08:22:59;;;;;;;27.88;11.88;;;;;;;11.26;100.00;101271.00;5020927;28;20358;-63
2021/09/29 08:28:17;;;;;;;28.23;10.98;;;;;;;11.24;100.00;101282.44;4990044;28;20073;-63
2021/09/29 08:30:59;;;;;;;26.92;10.60;;;;;;;11.14;100.00;101282.38;4991196;28;20034;-64
2021/09/29 08:36:05;;;;;;;24.30;8.80;;;;;;;11.08;100.00;101290.25;4990153;28;20065;-63
2021/09/29 08:38:39;;;;;;;24.05;8.02;;;;;;;11.01;100.00;101285.78;4990736;28;20069;-62
2021/09/29 08:43:50;;;;;;;22.20;5.90;;;;;;;10.78;100.00;101274.97;4990763;28;20556;-62
2021/09/29 08:46:30;;;;;;;22.70;6.60;;;;;;;10.71;100.00;101281.94;4990257;28;20042;-63
2021/09/29 09:16:33;;;;;;;20.48;6.20;;;;;;;10.51;100.00;101320.47;4922376;29;20088;-64
2021/09/29 09:19:04;;;;;;;20.88;6.40;;;;;;;10.53;100.00;101329.28;4916548;29;20100;-64
2021/09/29 09:21:32;;;;;;;21.77;6.88;;;;;;;10.53;100.00;101324.00;4917073;29;20028;-62
2021/09/29 09:23:58;;;;;;;22.30;6.90;;;;;;;10.47;100.00;101332.78;4921075;29;20518;-60
2021/09/29 09:26:26;;;;;;;22.60;7.90;;;;;;;10.40;100.00;101320.34;4917538;29;20047;-63
2021/09/29 09:29:07;;;;;;;24.15;8.68;;;;;;;10.51;100.00;101338.97;4949597;28;20135;-63
2021/09/29 09:31:33;;;;;;;24.00;9.07;;;;;;;10.47;100.00;101338.06;4975658;28;20035;-62
2021/09/29 09:34:04;;;;;;;24.77;9.38;;;;;;;10.42;100.00;101337.97;4978568;28;20090;-62
2021/09/29 09:36:40;;;;;;;25.05;9.57;;;;;;;10.50;100.00;101345.13;4980159;28;20053;-62
2021/09/29 09:39:12;;;;;;;25.35;10.55;;;;;;;10.48;100.00;101347.75;4977521;28;20057;-62
2021/09/29 09:41:44;;;;;;;27.45;11.75;;;;;;;10.50;100.00;101339.84;4983020;28;20041;-63
2021/09/29 09:44:09;;;;;;;29.27;12.50;;;;;;;10.57;100.00;101342.59;5020041;28;20049;-63
2021/09/29 09:46:35;;;;;;;32.20;14.07;;;;;;;10.58;100.00;101349.63;5015895;28;20117;-61
2021/09/29 09:49:03;;;;;;;31.60;14.73;;;;;;;10.62;100.00;101347.94;5014429;28;20469;-64
2021/09/29 09:51:28;;;;;;;32.50;14.68;;;;;;;10.74;100.00;101356.00;5018906;28;20062;-64
2021/09/29 09:53:56;;;;;;;34.40;15.55;;;;;;;10.85;100.00;101363.16;5019456;28;20064;-61
2021/09/29 09:56:25;;;;;;;35.63;16.10;;;;;;;10.96;100.00;101361.53;5017598;28;20021;-61
2021/09/29 09:58:54;;;;;;;35.78;15.88;;;;;;;10.97;100.00;101373.91;5013256;28;20138;-65
2021/09/29 10:01:22;;;;;;;38.97;17.45;;;;;;;11.03;100.00;101366.03;5017050;28;20030;-63
2021/09/29 10:03:50;;;;;;;37.30;18.33;;;;;;;10.99;100.00;101373.06;5016983;28;20025;-61
2021/09/29 10:06:17;;;;;;;40.38;18.95;;;;;;;11.05;100.00;101374.84;5016279;28;20068;-61
2021/09/29 10:08:56;;;;;;;42.42;20.75;;;;;;;11.16;100.00;101375.84;5016928;28;20137;-61
2021/09/29 10:11:36;;;;;;;41.67;20.92;;;;;;;11.20;100.00;101365.31;5018630;28;20033;-61
2021/09/29 10:28:13;;;;;;;35.03;17.48;;;;;;;10.55;100.00;101399.84;4972302;28;20046;-61
2021/09/29 10:30:57;;;;;;;34.22;16.15;;;;;;;10.52;100.00;101391.00;4973444;28;20038;-62
2021/09/29 10:33:25;;;;;;;34.90;15.85;;;;;;;10.55;100.00;101402.47;4973475;28;20113;-62
2021/09/29 10:47:35;;;;;;;28.38;12.20;;;;;;;10.36;100.00;101380.19;4953345;28;20031;-62
2021/09/29 11:04:33;;;;;;;35.10;17.40;;;;;;;12.28;100.00;101390.94;4985106;28;20116;-64
2021/09/29 11:07:24;;;;;;;33.15;16.45;;;;;;;13.77;100.00;101389.63;4973754;28;20034;-64
2021/09/29 11:29:27;;;;;;;18.77;4.85;;;;;;;10.40;100.00;101461.31;5021919;28;20044;-65
2021/09/29 11:31:57;;;;;;;18.45;5.15;;;;;;;9.80;100.00;101460.31;5023986;28;20030;-63
2021/09/29 11:34:26;;;;;;;20.83;5.90;;;;;;;9.60;100.00;101466.13;5023180;28;20030;-67
2021/09/29 12:11:28;;;;;;;22.77;7.35;;;;;;;9.96;100.00;101482.59;5019073;28;20472;-64
2021/09/29 12:16:33;;;;;;;24.73;8.52;;;;;;;10.45;100.00;101501.91;5017323;28;20118;-64
2021/09/29 12:19:08;;;;;;;24.33;7.95;;;;;;;10.82;100.00;101510.38;5017389;28;20113;-64
2021/09/29 12:21:43;;;;;;;24.90;8.38;;;;;;;11.29;100.00;101503.03;5018876;28;20020;-64
2021/09/29 12:24:24;;;;;;;25.90;8.23;;;;;;;11.96;100.00;101513.47;5017476;28;20025;-64
2021/09/29 12:26:52;;;;;;;24.65;8.60;;;;;;;12.16;100.00;101526.03;5021039;28;20029;-64
2021/09/29 12:29:35;;;;;;;27.35;8.57;;;;;;;12.62;95.40;101528.16;5018709;28;20524;-64
2021/09/29 12:35:15;;;;;;;24.05;8.05;;;;;;;11.84;100.00;101516.88;5006198;28;20034;-64
2021/09/29 12:37:53;;;;;;;23.73;9.15;;;;;;;12.30;100.00;101528.78;5003410;28;20170;-64
2021/09/29 12:40:18;;;;;;;24.60;8.27;;;;;;;12.50;95.62;101529.81;5004635;28;20038;-63
2021/09/29 12:42:44;;;;;;;27.25;8.13;;;;;;;13.72;90.01;101527.78;5003817;28;20045;-64
2021/09/29 12:45:10;;;;;;;22.85;7.10;;;;;;;16.55;76.40;101533.00;4987529;28;20518;-63
2021/09/29 12:47:39;;;;;;;22.08;6.53;;;;;;;18.65;66.54;101534.63;4984844;28;20033;-64
2021/09/29 12:50:16;;;;;;;22.85;6.28;;;;;;;16.61;65.54;101539.22;4983277;28;20030;-64
2021/09/29 12:52:52;;;;;;;22.25;6.35;;;;;;;14.48;74.33;101539.34;4983969;28;20034;-64
2021/09/29 12:55:22;;;;;;;24.15;6.70;;;;;;;13.20;80.38;101567.41;4984384;28;20034;-64
2021/09/29 12:57:47;;;;;;;23.50;7.05;;;;;;;12.63;86.63;101564.41;4985872;28;20030;-64
2021/09/29 13:00:14;;;;;;;24.55;6.93;;;;;;;12.26;93.64;101559.69;4985483;28;20108;-63
2021/09/29 13:02:41;;;;;;;22.38;6.65;;;;;;;12.02;93.85;101561.22;4985179;28;20031;-63
2021/09/29 13:05:07;;;;;;;22.25;6.30;;;;;;;12.07;90.59;101555.09;4988416;28;20046;-64
2021/09/29 13:07:32;;;;;;;21.60;6.20;;;;;;;13.47;86.89;101555.16;4986022;28;20038;-63
2021/09/29 13:09:57;;;;;;;23.10;4.80;;;;;;;16.30;70.75;101553.72;4979104;28;20458;-63
2021/09/29 13:12:23;;;;;;;22.10;4.15;;;;;;;17.50;60.00;101554.22;4995035;28;20117;-62
2021/09/29 13:14:48;;;;;;;18.25;3.50;;;;;;;17.50;56.94;101580.09;4986261;28;20088;-63
2021/09/29 13:17:13;;;;;;;19.17;3.38;;;;;;;17.94;56.01;101559.91;4997652;28;20054;-62
2021/09/29 13:19:54;;;;;;;18.27;3.30;;;;;;;18.50;53.45;101569.72;5000985;28;20029;-64
2021/09/29 13:22:22;;;;;;;16.13;3.22;;;;;;;16.47;57.50;101576.69;4996012;28;20491;-65
2021/09/29 13:38:12;;;;;;;17.80;3.40;;;;;;;19.75;48.83;101604.84;5000366;28;20030;-65
2021/09/29 13:40:40;;;;;;;21.83;3.75;;;;;;;19.91;47.29;101613.47;4997856;28;20038;-63